Time;durP1;ratioP1;P1;durP2;ratioP2;P2;SDS_P1;SDS_P2;PMS_P1;PMS_P2;Temp;Humidity;BMP_temperature;BMP_pressure;BME280_temperature;BME280_humidity;BME280_pressure;Samples;Min_cycle;Max_cycle;Signal;HPM_P1;HPM_P2
2023/05/21 00:01:33;;;;;;;17.70;9.52;;;15.00;99.90;;;;;;4997516;28;20026;-71
2023/05/21 00:03:58;;;;;;;16.65;9.05;;;15.10;99.90;;;;;;4997692;28;20046;-72
2023/05/21 00:06:25;;;;;;;21.17;9.63;;;15.00;99.90;;;;;;4997489;28;20022;-73
2023/05/21 00:08:50;;;;;;;19.08;9.63;;;15.00;99.90;;;;;;4997433;28;20030;-74
2023/05/21 00:11:16;;;;;;;20.08;10.20;;;15.00;99.90;;;;;;4997335;28;20030;-74
2023/05/21 00:13:41;;;;;;;16.45;9.60;;;15.00;99.90;;;;;;4997336;28;20081;-73
2023/05/21 00:16:07;;;;;;;16.05;9.02;;;15.10;99.90;;;;;;4997200;28;20026;-73
2023/05/21 00:18:33;;;;;;;15.27;9.40;;;15.10;99.90;;;;;;4998357;28;20038;-72
2023/05/21 00:21:00;;;;;;;19.58;9.85;;;15.00;99.90;;;;;;4997732;28;20050;-72
2023/05/21 00:23:26;;;;;;;22.45;9.68;;;14.90;99.90;;;;;;4998195;28;20021;-72
2023/05/21 00:25:52;;;;;;;19.80;10.20;;;14.90;99.90;;;;;;4998112;28;20117;-72
2023/05/21 00:28:17;;;;;;;17.20;10.00;;;14.70;99.90;;;;;;4997835;28;20093;-72
2023/05/21 00:30:43;;;;;;;17.65;9.77;;;14.80;99.90;;;;;;4998347;28;20026;-72
2023/05/21 00:33:09;;;;;;;15.85;9.10;;;14.80;99.90;;;;;;4997030;28;20133;-72
2023/05/21 00:35:35;;;;;;;18.70;9.70;;;14.90;99.90;;;;;;4996906;28;20022;-71
2023/05/21 00:38:00;;;;;;;16.08;9.20;;;14.90;99.90;;;;;;4998130;28;20034;-71
2023/05/21 00:40:26;;;;;;;19.85;10.07;;;15.00;99.90;;;;;;4996919;28;20026;-72
2023/05/21 00:42:55;;;;;;;16.33;8.77;;;14.80;99.90;;;;;;4997509;28;20030;-71
2023/05/21 00:45:22;;;;;;;19.80;8.32;;;14.90;99.90;;;;;;4997768;28;20019;-72
2023/05/21 00:47:53;;;;;;;15.68;9.27;;;15.00;99.90;;;;;;4997689;28;20030;-72
2023/05/21 00:50:19;;;;;;;14.48;8.48;;;14.80;99.90;;;;;;4996837;28;20034;-72
2023/05/21 00:52:45;;;;;;;15.48;8.27;;;14.80;99.90;;;;;;4996947;28;20121;-72
2023/05/21 00:55:11;;;;;;;16.20;8.52;;;14.80;99.90;;;;;;4997873;28;20050;-72
2023/05/21 00:57:38;;;;;;;16.33;7.85;;;14.70;99.90;;;;;;4997695;28;20113;-72
2023/05/21 01:00:07;;;;;;;17.83;8.70;;;14.80;99.90;;;;;;4996503;28;20023;-72
2023/05/21 01:02:36;;;;;;;14.43;8.52;;;14.90;99.90;;;;;;4996695;28;20077;-72
2023/05/21 01:05:05;;;;;;;18.15;8.90;;;15.00;99.90;;;;;;4997330;28;20031;-72
2023/05/21 01:07:34;;;;;;;14.20;8.35;;;14.80;99.90;;;;;;4997338;28;20077;-72
2023/05/21 01:10:05;;;;;;;14.52;8.68;;;14.90;99.90;;;;;;4997413;28;20029;-72
2023/05/21 01:12:31;;;;;;;16.00;9.47;;;14.90;99.90;;;;;;4996593;28;20069;-72
2023/05/21 01:15:01;;;;;;;19.08;9.00;;;14.90;99.90;;;;;;4996465;28;20347;-72
2023/05/21 01:17:28;;;;;;;17.13;9.00;;;14.90;99.90;;;;;;4996739;28;20126;-72
2023/05/21 01:19:56;;;;;;;17.10;9.23;;;14.70;99.90;;;;;;4996612;28;20035;-72
2023/05/21 01:22:23;;;;;;;17.90;8.68;;;14.70;99.90;;;;;;4996573;28;20022;-72
2023/05/21 01:24:50;;;;;;;20.67;9.43;;;14.50;99.90;;;;;;4997093;28;20026;-72
2023/05/21 01:27:15;;;;;;;14.80;8.50;;;14.70;99.90;;;;;;4997522;28;20026;-71
2023/05/21 01:29:41;;;;;;;17.50;8.90;;;14.80;99.90;;;;;;4996787;28;20030;-71
2023/05/21 01:32:36;;;;;;;14.50;8.85;;;14.60;99.90;;;;;;4996314;28;20027;-72
2023/05/21 01:35:12;;;;;;;17.67;8.93;;;14.70;99.90;;;;;;4996511;28;20027;-72
2023/05/21 01:38:02;;;;;;;16.05;8.82;;;14.90;99.90;;;;;;4996335;28;20034;-72
2023/05/21 01:40:34;;;;;;;14.45;8.43;;;14.70;99.90;;;;;;4996398;28;20026;-71
2023/05/21 01:43:02;;;;;;;20.70;8.65;;;14.70;99.90;;;;;;4997783;28;20019;-71
2023/05/21 01:45:30;;;;;;;14.02;8.63;;;14.90;99.90;;;;;;4996990;28;20026;-72
2023/05/21 01:47:57;;;;;;;14.70;9.15;;;15.00;99.90;;;;;;4997366;28;20095;-71
2023/05/21 01:50:24;;;;;;;14.57;7.82;;;14.90;99.90;;;;;;4996087;28;20022;-71
2023/05/21 01:52:57;;;;;;;16.85;8.63;;;14.80;99.90;;;;;;4997275;28;20049;-72
2023/05/21 01:55:23;;;;;;;12.55;8.02;;;14.60;99.90;;;;;;4997021;28;20019;-72
2023/05/21 01:57:51;;;;;;;14.98;8.93;;;14.60;99.90;;;;;;4996176;28;20032;-72
2023/05/21 02:00:17;;;;;;;14.52;9.10;;;14.50;99.90;;;;;;4996167;28;20069;-72
2023/05/21 02:02:43;;;;;;;16.77;8.23;;;14.40;99.90;;;;;;4998242;28;20023;-72
2023/05/21 02:05:08;;;;;;;16.60;8.48;;;14.60;99.90;;;;;;4999708;28;20098;-72
2023/05/21 02:07:36;;;;;;;15.77;8.75;;;14.50;99.90;;;;;;4999610;28;20032;-72
2023/05/21 02:10:02;;;;;;;15.55;9.20;;;14.30;99.90;;;;;;4999932;28;20019;-72
2023/05/21 02:12:28;;;;;;;13.88;8.15;;;14.30;99.90;;;;;;5000108;28;20026;-72
2023/05/21 02:14:55;;;;;;;19.77;8.95;;;14.40;99.90;;;;;;4999400;28;20026;-72
2023/05/21 02:17:21;;;;;;;17.92;9.27;;;14.30;99.90;;;;;;4999986;28;20101;-71
2023/05/21 02:19:47;;;;;;;20.15;9.82;;;14.20;99.90;;;;;;5000180;28;20030;-72
2023/05/21 02:22:12;;;;;;;17.45;9.95;;;14.20;99.90;;;;;;4999660;28;20027;-72
2023/05/21 02:24:38;;;;;;;13.65;8.13;;;14.10;99.90;;;;;;4999446;28;20023;-71
2023/05/21 02:27:05;;;;;;;17.02;9.02;;;14.40;99.90;;;;;;4999350;28;20033;-72
2023/05/21 02:29:31;;;;;;;15.68;8.90;;;14.50;99.90;;;;;;4999259;28;20053;-71
2023/05/21 02:31:56;;;;;;;18.48;8.60;;;14.40;99.90;;;;;;5000217;28;20094;-72
2023/05/21 02:34:23;;;;;;;14.95;8.10;;;14.30;99.90;;;;;;5000213;28;20057;-72
2023/05/21 02:36:51;;;;;;;15.10;8.88;;;14.50;99.90;;;;;;4999298;28;20030;-72
2023/05/21 02:39:19;;;;;;;17.08;8.23;;;14.50;99.90;;;;;;4999351;28;20027;-72
2023/05/21 02:41:46;;;;;;;14.35;8.70;;;14.50;99.90;;;;;;4999136;28;20081;-72
2023/05/21 02:44:13;;;;;;;14.63;8.50;;;14.40;99.90;;;;;;4999303;28;20027;-71
2023/05/21 02:46:38;;;;;;;12.70;8.43;;;14.50;99.90;;;;;;4999062;28;20085;-72
2023/05/21 02:49:04;;;;;;;17.83;8.25;;;14.50;99.90;;;;;;4999876;28;20034;-72
2023/05/21 02:51:30;;;;;;;17.35;8.57;;;14.30;99.90;;;;;;4999901;28;20053;-72
2023/05/21 02:53:55;;;;;;;18.35;8.93;;;14.40;99.90;;;;;;4999689;28;20029;-72
2023/05/21 02:56:22;;;;;;;17.88;8.57;;;14.30;99.90;;;;;;4999518;28;20069;-72
2023/05/21 02:58:47;;;;;;;14.90;8.55;;;14.60;99.90;;;;;;4999631;28;20030;-72
2023/05/21 03:01:13;;;;;;;14.15;8.45;;;14.50;99.90;;;;;;4998731;28;20031;-72
2023/05/21 03:03:38;;;;;;;16.30;8.25;;;14.70;99.90;;;;;;4999294;28;20033;-72
2023/05/21 03:06:04;;;;;;;12.95;7.80;;;14.70;99.90;;;;;;4998930;28;20032;-72
2023/05/21 03:08:30;;;;;;;14.85;8.35;;;14.60;99.90;;;;;;4999546;28;20026;-72
2023/05/21 03:10:56;;;;;;;18.90;7.60;;;14.50;99.90;;;;;;4999847;28;20098;-72
2023/05/21 03:13:21;;;;;;;12.98;7.95;;;14.40;99.90;;;;;;4998477;28;20118;-72
2023/05/21 03:15:47;;;;;;;14.45;8.93;;;14.50;99.90;;;;;;4998861;28;20029;-72
2023/05/21 03:18:13;;;;;;;14.43;7.60;;;14.50;99.90;;;;;;4998064;28;20034;-72
2023/05/21 03:20:43;;;;;;;13.95;8.38;;;14.70;99.90;;;;;;4999309;28;20121;-72
2023/05/21 03:23:11;;;;;;;16.75;8.82;;;14.70;99.90;;;;;;4998249;28;20023;-72
2023/05/21 03:25:37;;;;;;;14.50;7.68;;;14.50;99.90;;;;;;4999136;28;20022;-72
2023/05/21 03:28:02;;;;;;;13.90;8.75;;;14.60;99.90;;;;;;4998441;28;20030;-72
2023/05/21 03:30:28;;;;;;;15.88;8.10;;;14.50;99.90;;;;;;4998048;28;20041;-72
2023/05/21 03:32:55;;;;;;;17.42;8.40;;;14.40;99.90;;;;;;4998165;28;20125;-71
2023/05/21 03:35:20;;;;;;;17.60;8.30;;;14.30;99.90;;;;;;4999159;28;20025;-72
2023/05/21 03:37:46;;;;;;;16.67;9.10;;;14.40;99.90;;;;;;4998846;28;20026;-72
2023/05/21 03:40:12;;;;;;;15.25;8.45;;;14.40;99.90;;;;;;4998256;28;20027;-72
2023/05/21 03:42:37;;;;;;;15.38;8.60;;;14.20;99.90;;;;;;4997726;28;20046;-72
2023/05/21 03:45:03;;;;;;;14.10;8.30;;;14.30;99.90;;;;;;4998976;28;20029;-72
2023/05/21 03:47:29;;;;;;;17.20;9.43;;;14.20;99.90;;;;;;4997868;28;20027;-72
2023/05/21 03:49:54;;;;;;;16.33;8.65;;;14.10;99.90;;;;;;4998190;28;20022;-72
2023/05/21 03:52:20;;;;;;;14.98;8.50;;;14.20;99.90;;;;;;4998616;28;20029;-72
2023/05/21 03:54:45;;;;;;;15.38;8.55;;;14.30;99.90;;;;;;4997652;28;20026;-72
2023/05/21 03:57:11;;;;;;;15.57;8.88;;;14.40;99.90;;;;;;4997558;28;20026;-72
2023/05/21 03:59:36;;;;;;;16.35;9.43;;;14.30;99.90;;;;;;4997433;28;20019;-72
2023/05/21 04:02:02;;;;;;;18.38;8.57;;;14.30;99.90;;;;;;4997837;28;20077;-72
2023/05/21 04:04:28;;;;;;;14.23;8.68;;;14.40;99.90;;;;;;4997465;28;20022;-72
2023/05/21 04:06:54;;;;;;;14.55;8.80;;;14.40;99.90;;;;;;4997432;28;20026;-72
2023/05/21 04:09:20;;;;;;;18.83;9.10;;;14.30;99.90;;;;;;4997609;28;20026;-72
2023/05/21 04:11:46;;;;;;;20.73;9.25;;;14.40;99.90;;;;;;4998263;28;20026;-72
2023/05/21 04:14:12;;;;;;;14.02;8.23;;;14.40;99.90;;;;;;4997709;28;20026;-72
2023/05/21 04:16:37;;;;;;;12.32;8.48;;;14.30;99.90;;;;;;4997136;28;20033;-72
2023/05/21 04:19:03;;;;;;;14.75;8.48;;;14.50;99.90;;;;;;4998049;28;20026;-72
2023/05/21 04:21:31;;;;;;;17.13;8.55;;;14.50;99.90;;;;;;4998272;28;20033;-72
2023/05/21 04:23:56;;;;;;;15.00;8.25;;;14.60;99.90;;;;;;4997408;28;20025;-72
2023/05/21 04:26:22;;;;;;;16.45;8.98;;;14.50;99.90;;;;;;4997145;28;20094;-72
2023/05/21 04:28:49;;;;;;;15.27;8.70;;;14.50;99.90;;;;;;4996975;28;20037;-72
2023/05/21 04:31:14;;;;;;;19.40;8.93;;;14.60;99.90;;;;;;4997324;28;20034;-72
2023/05/21 04:33:44;;;;;;;16.45;8.77;;;14.60;99.90;;;;;;4997509;28;20026;-72
2023/05/21 04:36:10;;;;;;;13.27;8.25;;;14.60;99.90;;;;;;4998041;28;20029;-72
2023/05/21 04:38:37;;;;;;;19.77;8.10;;;14.60;99.90;;;;;;4996999;28;20073;-71
2023/05/21 04:41:03;;;;;;;13.75;8.88;;;14.70;99.90;;;;;;4998368;28;20101;-71
2023/05/21 04:43:28;;;;;;;17.55;9.52;;;14.50;99.90;;;;;;4997097;28;20060;-72
2023/05/21 04:45:54;;;;;;;16.52;8.77;;;14.50;99.90;;;;;;4997831;28;20077;-72
2023/05/21 04:48:23;;;;;;;15.48;9.23;;;14.40;99.90;;;;;;4996871;28;20058;-72
2023/05/21 04:50:49;;;;;;;16.10;8.75;;;14.50;99.90;;;;;;4996840;28;20037;-72
2023/05/21 04:53:15;;;;;;;13.55;8.20;;;14.50;99.90;;;;;;4996807;28;20023;-72
2023/05/21 04:55:41;;;;;;;15.27;8.63;;;14.50;99.90;;;;;;4997882;28;20025;-72
2023/05/21 04:58:06;;;;;;;15.75;9.65;;;14.70;99.90;;;;;;4996565;28;20036;-72
2023/05/21 05:00:33;;;;;;;17.63;8.95;;;14.60;99.90;;;;;;4997606;28;20042;-72
2023/05/21 05:02:59;;;;;;;16.98;9.18;;;14.70;99.90;;;;;;4996748;28;20023;-72
2023/05/21 05:05:24;;;;;;;16.98;8.68;;;14.80;99.90;;;;;;4997587;28;20019;-72
2023/05/21 05:07:50;;;;;;;14.13;8.48;;;14.80;99.90;;;;;;4997498;28;20081;-72
2023/05/21 05:10:16;;;;;;;15.63;8.38;;;14.90;99.90;;;;;;4997462;28;20037;-72
2023/05/21 05:12:41;;;;;;;17.33;9.35;;;14.90;99.90;;;;;;4996952;28;20033;-72
2023/05/21 05:15:07;;;;;;;22.58;9.65;;;15.00;99.90;;;;;;4996790;28;20026;-72
2023/05/21 05:17:33;;;;;;;15.93;9.02;;;14.90;99.90;;;;;;4997710;28;20109;-72
2023/05/21 05:19:58;;;;;;;15.00;8.13;;;14.80;99.90;;;;;;4997343;28;20113;-72
2023/05/21 05:22:24;;;;;;;17.80;8.52;;;15.00;99.90;;;;;;4996635;28;20025;-71
2023/05/21 05:24:50;;;;;;;14.38;8.38;;;14.90;99.90;;;;;;4997266;28;20022;-72
2023/05/21 05:27:16;;;;;;;16.65;9.40;;;14.90;99.90;;;;;;4996961;28;20023;-72
2023/05/21 05:29:45;;;;;;;14.95;9.10;;;14.80;99.90;;;;;;4996785;28;20027;-72
2023/05/21 05:32:11;;;;;;;14.68;9.43;;;14.90;99.90;;;;;;4996770;28;20022;-72
2023/05/21 05:34:37;;;;;;;17.08;9.27;;;14.80;99.90;;;;;;4996521;28;20133;-72
2023/05/21 05:37:03;;;;;;;18.40;8.88;;;14.90;99.90;;;;;;4996405;28;20026;-72
2023/05/21 05:39:29;;;;;;;19.80;9.63;;;14.80;99.90;;;;;;5000205;28;20022;-72
2023/05/21 05:41:54;;;;;;;20.83;9.88;;;14.90;99.90;;;;;;5000894;28;20022;-72
2023/05/21 05:44:21;;;;;;;14.93;8.90;;;15.00;99.90;;;;;;5000276;28;20042;-72
2023/05/21 05:46:46;;;;;;;15.40;8.25;;;15.00;99.90;;;;;;5000248;28;20030;-72
2023/05/21 05:49:15;;;;;;;17.05;9.20;;;15.00;99.90;;;;;;5000262;28;20034;-72
2023/05/21 05:51:40;;;;;;;17.83;9.52;;;15.10;99.90;;;;;;5000338;28;20029;-71
2023/05/21 05:54:06;;;;;;;15.18;9.15;;;15.10;99.90;;;;;;5000505;28;20030;-72
2023/05/21 05:56:31;;;;;;;14.75;8.60;;;15.20;99.90;;;;;;5000713;28;20022;-72
2023/05/21 05:58:58;;;;;;;14.00;8.45;;;15.20;99.90;;;;;;5000724;28;20038;-72
2023/05/21 06:01:24;;;;;;;16.27;8.70;;;15.20;99.90;;;;;;5000029;28;20018;-72
2023/05/21 06:03:50;;;;;;;15.13;9.55;;;15.20;99.90;;;;;;5000333;28;20045;-72
2023/05/21 06:06:16;;;;;;;17.05;9.38;;;15.30;99.90;;;;;;4999708;28;20023;-72
2023/05/21 06:08:42;;;;;;;14.63;9.57;;;15.30;99.90;;;;;;5000553;28;20029;-72
2023/05/21 06:11:08;;;;;;;18.27;10.13;;;15.30;99.90;;;;;;5000344;28;20114;-72
2023/05/21 06:13:34;;;;;;;17.00;9.13;;;15.30;99.90;;;;;;4999490;28;20027;-72
2023/05/21 06:15:59;;;;;;;17.00;9.53;;;15.30;99.90;;;;;;4999847;28;20033;-72
2023/05/21 06:18:25;;;;;;;17.60;9.80;;;15.40;99.90;;;;;;5000148;28;20035;-72
2023/05/21 06:20:51;;;;;;;16.15;9.27;;;15.50;99.90;;;;;;4999925;28;20031;-72
2023/05/21 06:23:16;;;;;;;18.65;10.15;;;15.50;99.90;;;;;;4999425;28;20023;-74
2023/05/21 06:25:42;;;;;;;22.08;10.15;;;15.50;99.90;;;;;;4999201;28;20030;-74
2023/05/21 06:28:07;;;;;;;16.00;9.35;;;15.50;99.90;;;;;;4999195;28;20045;-74
2023/05/21 06:30:33;;;;;;;15.13;10.15;;;15.60;99.90;;;;;;4999405;28;20022;-74
2023/05/21 06:32:58;;;;;;;17.00;9.48;;;15.70;99.90;;;;;;4999284;28;20023;-74
2023/05/21 06:35:24;;;;;;;17.95;9.52;;;15.70;99.90;;;;;;4999531;28;20043;-74
2023/05/21 06:37:49;;;;;;;17.02;9.57;;;15.80;99.90;;;;;;4999114;28;20033;-74
2023/05/21 06:40:15;;;;;;;15.30;10.00;;;15.80;99.90;;;;;;4999446;28;20023;-74
2023/05/21 06:42:41;;;;;;;14.65;8.95;;;15.90;99.90;;;;;;4998942;28;20022;-72
2023/05/21 06:45:06;;;;;;;17.42;10.05;;;16.00;99.90;;;;;;4998932;28;20018;-72
2023/05/21 06:47:32;;;;;;;19.30;10.18;;;16.00;99.90;;;;;;4999217;28;20026;-72
2023/05/21 06:49:58;;;;;;;14.38;9.05;;;16.10;99.90;;;;;;4997988;28;20034;-72
2023/05/21 06:52:25;;;;;;;16.75;9.38;;;16.20;99.90;;;;;;4999392;28;20073;-72
2023/05/21 06:54:51;;;;;;;18.00;10.32;;;16.30;99.90;;;;;;5000186;28;20019;-76
2023/05/21 06:57:17;;;;;;;18.88;9.55;;;16.30;99.90;;;;;;4999620;28;20053;-73
2023/05/21 06:59:42;;;;;;;15.00;9.70;;;16.40;99.90;;;;;;4998717;28;20115;-72
2023/05/21 07:02:08;;;;;;;17.33;10.60;;;16.40;99.90;;;;;;4998649;28;20030;-72
2023/05/21 07:04:34;;;;;;;19.45;10.93;;;16.40;99.90;;;;;;4999013;28;20049;-76
2023/05/21 07:07:00;;;;;;;21.95;9.73;;;16.50;99.90;;;;;;4999488;28;20030;-75
2023/05/21 07:09:26;;;;;;;15.93;10.00;;;16.60;99.90;;;;;;4998500;28;20125;-72
2023/05/21 07:11:52;;;;;;;20.40;11.45;;;16.60;99.90;;;;;;4999370;28;20094;-72
2023/05/21 07:14:17;;;;;;;20.55;10.63;;;16.70;99.90;;;;;;4998300;28;20030;-72
2023/05/21 07:16:43;;;;;;;16.13;9.52;;;16.70;99.90;;;;;;4998494;28;20026;-72
2023/05/21 07:19:09;;;;;;;18.50;11.38;;;16.70;99.90;;;;;;4998567;28;20041;-72
2023/05/21 07:21:34;;;;;;;17.10;10.27;;;16.80;99.90;;;;;;4999138;28;20026;-72
2023/05/21 07:24:00;;;;;;;19.40;10.93;;;16.80;99.90;;;;;;4999115;28;20022;-72
2023/05/21 07:26:25;;;;;;;17.45;10.75;;;16.90;99.90;;;;;;4999019;28;20026;-72
2023/05/21 07:28:51;;;;;;;20.13;10.40;;;16.90;99.90;;;;;;4998102;28;20022;-72
2023/05/21 07:31:17;;;;;;;21.02;11.07;;;16.90;99.90;;;;;;4999187;28;20110;-72
2023/05/21 07:33:42;;;;;;;23.23;11.45;;;17.00;99.90;;;;;;4998158;28;20079;-74
2023/05/21 07:36:08;;;;;;;21.77;11.35;;;17.10;99.90;;;;;;4998862;28;20037;-74
2023/05/21 07:38:34;;;;;;;20.45;11.38;;;17.10;99.90;;;;;;4997891;28;20026;-74
2023/05/21 07:40:59;;;;;;;23.05;11.63;;;17.20;99.90;;;;;;4998997;28;20033;-74
2023/05/21 07:43:25;;;;;;;20.40;11.55;;;17.20;99.90;;;;;;4998211;28;20026;-74
2023/05/21 07:45:51;;;;;;;22.83;13.10;;;17.30;99.90;;;;;;4998257;28;20069;-74
2023/05/21 07:48:17;;;;;;;20.55;11.65;;;17.30;99.90;;;;;;4997662;28;20027;-74
2023/05/21 07:50:43;;;;;;;29.48;12.23;;;17.40;99.90;;;;;;4998357;28;20053;-74
2023/05/21 07:53:09;;;;;;;18.77;11.73;;;17.50;99.90;;;;;;4997701;28;20124;-72
2023/05/21 07:55:35;;;;;;;19.10;12.05;;;17.50;99.90;;;;;;4998415;28;20087;-72
2023/05/21 07:58:00;;;;;;;18.13;11.40;;;17.60;99.90;;;;;;4997607;28;20073;-74
2023/05/21 08:00:26;;;;;;;25.92;12.45;;;17.70;99.90;;;;;;4997225;28;20064;-74
2023/05/21 08:02:52;;;;;;;21.25;12.02;;;17.80;99.90;;;;;;4998022;28;20049;-73
2023/05/21 08:05:18;;;;;;;25.58;11.40;;;17.90;99.90;;;;;;4997425;28;20018;-73
2023/05/21 08:07:44;;;;;;;18.88;10.90;;;18.00;99.90;;;;;;4998443;28;20030;-73
2023/05/21 08:10:09;;;;;;;18.27;11.20;;;18.00;99.90;;;;;;4997398;28;20077;-74
2023/05/21 08:12:35;;;;;;;17.67;10.80;;;18.20;99.90;;;;;;4997700;28;20092;-74
2023/05/21 08:15:00;;;;;;;24.55;10.85;;;18.30;99.90;;;;;;4997670;28;20026;-74
2023/05/21 08:17:27;;;;;;;18.15;10.85;;;18.50;99.90;;;;;;4997178;28;20026;-74
2023/05/21 08:19:53;;;;;;;19.42;10.70;;;18.60;99.90;;;;;;4997622;28;20034;-75
2023/05/21 08:22:18;;;;;;;21.13;11.70;;;18.70;99.90;;;;;;4997311;28;20052;-74
2023/05/21 08:24:44;;;;;;;19.75;11.32;;;18.80;99.90;;;;;;4997820;28;20026;-75
2023/05/21 08:27:10;;;;;;;17.85;11.40;;;19.00;99.90;;;;;;4997815;28;20026;-75
2023/05/21 08:29:35;;;;;;;19.30;11.85;;;19.10;99.90;;;;;;4997557;28;20033;-74
2023/05/21 08:32:01;;;;;;;18.35;11.32;;;19.30;99.90;;;;;;4997098;28;20073;-74
2023/05/21 08:34:26;;;;;;;19.38;11.00;;;19.40;99.90;;;;;;4997076;28;20022;-76
2023/05/21 08:36:52;;;;;;;17.75;11.32;;;19.30;99.90;;;;;;4996912;28;20026;-76
2023/05/21 08:39:18;;;;;;;15.02;10.40;;;19.30;99.90;;;;;;4997564;28;20082;-77
2023/05/21 08:41:48;;;;;;;20.02;11.77;;;19.30;99.90;;;;;;4996952;28;20027;-77
2023/05/21 08:44:14;;;;;;;18.38;11.52;;;19.40;99.90;;;;;;4997767;28;20034;-76
2023/05/21 08:46:42;;;;;;;20.50;11.60;;;19.40;99.90;;;;;;4997113;28;20027;-77
2023/05/21 08:49:11;;;;;;;18.48;11.15;;;19.40;99.90;;;;;;4997945;28;20082;-77
2023/05/21 08:51:40;;;;;;;16.85;11.48;;;19.50;99.90;;;;;;4997201;28;20029;-77
2023/05/21 08:54:06;;;;;;;18.15;10.43;;;19.50;99.90;;;;;;4996853;28;20026;-76
2023/05/21 08:56:33;;;;;;;18.17;10.82;;;19.50;99.90;;;;;;4996489;28;20030;-76
2023/05/21 08:58:59;;;;;;;16.60;11.15;;;19.60;99.90;;;;;;4996619;28;20058;-76
2023/05/21 09:01:25;;;;;;;20.90;11.68;;;19.70;99.90;;;;;;4997093;28;20049;-76
2023/05/21 09:03:52;;;;;;;21.25;11.82;;;19.70;99.90;;;;;;4996860;28;20018;-76
2023/05/21 09:06:18;;;;;;;19.80;12.20;;;19.80;99.90;;;;;;4997610;28;20023;-76
2023/05/21 09:08:47;;;;;;;17.65;11.65;;;19.90;99.90;;;;;;4997515;28;20019;-76
2023/05/21 09:11:13;;;;;;;19.25;11.80;;;20.10;99.90;;;;;;4997381;28;20057;-77
2023/05/21 09:13:40;;;;;;;21.45;12.23;;;20.30;99.90;;;;;;5000365;28;20068;-76
2023/05/21 09:16:06;;;;;;;17.25;11.18;;;20.40;99.90;;;;;;5000913;28;20023;-77
2023/05/21 09:18:32;;;;;;;17.05;10.90;;;20.50;99.90;;;;;;5000879;28;20034;-77
2023/05/21 09:21:18;;;;;;;19.10;12.13;;;20.40;99.90;;;;;;5001673;28;20037;-76
2023/05/21 09:23:44;;;;;;;19.52;12.68;;;20.40;99.90;;;;;;5001320;28;20102;-76
2023/05/21 09:26:11;;;;;;;18.48;11.43;;;20.60;99.90;;;;;;5000553;28;20113;-72
2023/05/21 09:28:37;;;;;;;18.23;11.73;;;20.80;99.90;;;;;;5000760;28;20026;-72
2023/05/21 09:31:03;;;;;;;18.13;11.32;;;20.90;99.90;;;;;;5000446;28;20033;-73
2023/05/21 09:33:28;;;;;;;20.42;11.85;;;21.10;99.90;;;;;;5001230;28;20031;-73
2023/05/21 09:35:54;;;;;;;20.73;11.57;;;21.20;99.90;;;;;;5000186;28;20026;-74
2023/05/21 09:38:23;;;;;;;17.48;11.52;;;21.30;99.90;;;;;;5000494;28;20073;-73
2023/05/21 09:40:49;;;;;;;17.38;11.32;;;21.40;99.90;;;;;;5000994;28;20027;-77
2023/05/21 09:43:15;;;;;;;16.80;10.55;;;21.50;99.90;;;;;;5001086;28;20081;-76
2023/05/21 09:45:53;;;;;;;16.65;11.73;;;21.70;99.90;;;;;;5000088;28;20058;-77
2023/05/21 09:48:32;;;;;;;15.15;10.30;;;21.80;99.90;;;;;;5000787;28;20038;-73
2023/05/21 09:51:15;;;;;;;21.83;11.35;;;21.90;99.90;;;;;;5000024;28;20117;-77
2023/05/21 09:53:56;;;;;;;16.88;10.65;;;22.10;99.90;;;;;;5000108;28;20053;-77
2023/05/21 09:56:29;;;;;;;18.77;11.00;;;22.00;99.90;;;;;;4999863;28;20085;-78
2023/05/21 09:59:00;;;;;;;16.50;10.82;;;22.20;99.90;;;;;;5000610;28;20026;-77
2023/05/21 10:01:27;;;;;;;;;;;22.40;99.90;;;;;;5001158;28;20019;-77
2023/05/21 10:03:55;;;;;;;17.30;10.80;;;22.50;99.90;;;;;;5000585;28;19920;-77
2023/05/21 10:06:25;;;;;;;16.23;10.07;;;22.70;99.90;;;;;;5000504;28;20026;-72
2023/05/21 10:08:54;;;;;;;17.48;11.32;;;22.80;99.90;;;;;;4999604;28;20023;-75
2023/05/21 10:11:23;;;;;;;15.43;11.45;;;23.00;99.90;;;;;;4999632;28;20027;-74
2023/05/21 10:13:54;;;;;;;15.68;10.57;;;23.00;99.90;;;;;;5000343;28;20015;-77
2023/05/21 10:16:21;;;;;;;16.73;10.55;;;23.20;99.90;;;;;;4999589;28;20033;-74
2023/05/21 10:18:48;;;;;;;13.38;10.05;;;23.00;99.90;;;;;;5000379;28;20034;-77
2023/05/21 10:21:14;;;;;;;14.18;10.60;;;23.20;99.90;;;;;;4999404;28;20029;-77
2023/05/21 10:23:41;;;;;;;14.35;10.63;;;23.20;99.90;;;;;;4999475;28;20035;-77
2023/05/21 10:26:07;;;;;;;14.32;10.25;;;23.20;99.90;;;;;;4999599;28;20098;-73
2023/05/21 10:28:35;;;;;;;16.30;10.23;;;23.40;99.90;;;;;;4999370;28;20031;-76
2023/05/21 10:31:01;;;;;;;16.95;10.95;;;23.70;99.90;;;;;;5000146;28;20058;-77
2023/05/21 10:33:28;;;;;;;13.80;10.07;;;23.90;99.90;;;;;;5000231;28;20076;-76
2023/05/21 10:35:57;;;;;;;15.13;10.90;;;24.20;99.90;;;;;;4999276;28;20027;-76
2023/05/21 10:38:23;;;;;;;18.75;10.98;;;24.30;99.90;;;;;;4998956;28;20080;-74
2023/05/21 10:40:52;;;;;;;15.38;10.98;;;24.30;99.90;;;;;;4999113;28;20026;-74
2023/05/21 10:43:35;;;;;;;16.30;10.82;;;24.30;99.90;;;;;;4999225;28;20022;-76
2023/05/21 10:46:17;;;;;;;13.73;9.95;;;24.30;99.90;;;;;;4999823;28;20078;-72
2023/05/21 10:49:15;;;;;;;13.43;10.38;;;24.40;99.90;;;;;;4998977;28;20029;-73
2023/05/21 10:52:23;;;;;;;17.77;11.20;;;24.60;99.90;;;;;;4999875;28;20045;-74
2023/05/21 10:55:22;;;;;;;16.20;11.13;;;24.70;99.90;;;;;;4998980;28;20062;-76
2023/05/21 10:58:10;;;;;;;16.83;11.65;;;24.60;99.90;;;;;;4998819;28;20026;-73
2023/05/21 11:00:35;;;;;;;15.55;11.88;;;24.60;99.90;;;;;;4998804;28;20033;-76
2023/05/21 11:03:03;;;;;;;13.27;10.20;;;24.50;99.90;;;;;;4999747;28;20026;-77
2023/05/21 11:05:54;;;;;;;14.98;9.95;;;24.50;99.90;;;;;;4998620;28;20018;-77
2023/05/21 11:08:24;;;;;;;16.33;9.85;;;24.40;99.90;;;;;;4998481;28;20026;-77
2023/05/21 11:10:53;;;;;;;13.02;10.10;;;24.40;99.90;;;;;;4999303;28;20030;-73
2023/05/21 11:13:20;;;;;;;16.20;9.65;;;24.50;99.90;;;;;;4999062;28;20035;-76
2023/05/21 11:15:58;;;;;;;15.00;9.63;;;24.60;99.90;;;;;;4998472;28;20032;-74
2023/05/21 11:18:32;;;;;;;12.55;9.93;;;24.80;99.90;;;;;;4999173;28;20027;-76
2023/05/21 11:21:12;;;;;;;11.80;8.98;;;24.90;99.90;;;;;;4998345;28;20030;-74
2023/05/21 11:23:51;;;;;;;12.50;8.90;;;25.20;99.90;;;;;;4998325;28;20081;-77
2023/05/21 11:26:21;;;;;;;14.05;9.20;;;25.50;99.90;;;;;;4999029;28;20049;-75
2023/05/21 11:29:10;;;;;;;10.87;8.90;;;25.60;99.90;;;;;;4999097;28;20030;-75
2023/05/21 11:31:38;;;;;;;12.48;9.32;;;25.60;99.90;;;;;;4998470;28;20034;-74
2023/05/21 11:34:14;;;;;;;13.60;9.25;;;25.50;99.90;;;;;;4998250;28;20098;-74
2023/05/21 11:36:43;;;;;;;11.73;8.98;;;25.60;99.90;;;;;;4998254;28;20034;-71
2023/05/21 11:39:10;;;;;;;14.77;10.00;;;25.70;99.90;;;;;;4998915;28;20022;-71
2023/05/21 11:41:53;;;;;;;13.65;9.57;;;25.60;99.90;;;;;;4998257;28;20019;-71
2023/05/21 11:44:37;;;;;;;13.35;8.98;;;25.60;99.90;;;;;;4998602;28;20022;-74
2023/05/21 11:47:04;;;;;;;12.25;9.65;;;25.50;99.90;;;;;;4998790;28;20037;-72
2023/05/21 11:49:30;;;;;;;14.23;10.07;;;25.60;99.90;;;;;;4998552;28;20022;-75
2023/05/21 11:51:58;;;;;;;12.05;9.15;;;25.80;99.90;;;;;;4998095;28;20116;-74
2023/05/21 11:54:24;;;;;;;18.70;9.52;;;25.90;99.90;;;;;;4997768;28;20026;-75
2023/05/21 11:56:51;;;;;;;13.75;10.45;;;25.90;99.90;;;;;;4998820;28;20019;-72
2023/05/21 11:59:17;;;;;;;13.60;9.25;;;26.00;99.90;;;;;;4997868;28;20027;-72
2023/05/21 12:01:43;;;;;;;11.95;9.90;;;26.30;99.90;;;;;;4998432;28;20092;-71
2023/05/21 12:04:10;;;;;;;11.88;9.75;;;26.40;99.90;;;;;;4997797;28;20055;-71
2023/05/21 12:06:37;;;;;;;12.48;9.23;;;26.90;99.90;;;;;;4997456;28;20027;-74
2023/05/21 12:09:03;;;;;;;16.02;10.40;;;27.40;99.90;;;;;;4997737;28;20033;-75
2023/05/21 12:11:29;;;;;;;14.90;10.13;;;27.60;99.90;;;;;;4998612;28;20022;-71
2023/05/21 12:13:55;;;;;;;13.30;9.85;;;27.60;99.90;;;;;;4997339;28;20038;-72
2023/05/21 12:16:21;;;;;;;11.40;9.07;;;27.50;99.90;;;;;;4997323;28;20066;-71
2023/05/21 12:18:47;;;;;;;13.43;9.90;;;27.80;99.90;;;;;;4997039;28;20164;-71
2023/05/21 12:21:12;;;;;;;13.25;10.13;;;27.90;99.90;;;;;;4997760;28;20065;-74
2023/05/21 12:23:38;;;;;;;11.93;9.80;;;27.60;99.90;;;;;;4997229;28;20019;-74
2023/05/21 12:26:04;;;;;;;12.82;9.45;;;27.10;99.90;;;;;;4997262;28;20045;-71
2023/05/21 12:28:30;;;;;;;13.70;10.07;;;26.70;99.90;;;;;;4997663;28;20030;-71
2023/05/21 12:30:56;;;;;;;12.10;9.73;;;26.40;99.90;;;;;;4997435;28;20061;-71
2023/05/21 12:33:24;;;;;;;15.13;10.05;;;26.20;99.90;;;;;;4997564;28;20022;-71
2023/05/21 12:35:51;;;;;;;15.88;10.15;;;26.00;99.90;;;;;;4997140;28;20022;-71